createdAt,value
2017-11-05T00:00:59.375Z,65.30
2017-11-05T00:03:28.336Z,65.60
2017-11-05T00:05:57.056Z,65.60
2017-11-05T00:08:26.437Z,65.50
2017-11-05T00:10:55.736Z,65.70
2017-11-05T00:13:25.036Z,65.50
2017-11-05T00:15:54.015Z,65.80
2017-11-05T00:18:22.498Z,65.80
2017-11-05T00:20:51.695Z,66.50
2017-11-05T00:23:19.995Z,65.60
2017-11-05T00:25:48.955Z,65.40
2017-11-05T00:28:17.216Z,65.40
2017-11-05T00:30:45.696Z,65.70
2017-11-05T00:33:14.355Z,65.90
2017-11-05T00:35:42.856Z,65.70
2017-11-05T00:38:11.196Z,66.10
2017-11-05T00:40:39.637Z,66.30
2017-11-05T00:43:07.719Z,66.40
2017-11-05T00:45:36.036Z,66.30
2017-11-05T00:48:04.256Z,65.80
2017-11-05T00:50:32.555Z,65.70
2017-11-05T00:53:00.875Z,65.70
2017-11-05T00:55:29.095Z,65.10
2017-11-05T00:57:57.795Z,65.40
2017-11-05T01:00:27.275Z,64.20
2017-11-05T01:02:55.781Z,64.10
2017-11-05T01:05:25.375Z,63.40
2017-11-05T01:07:53.656Z,63.40
2017-11-05T01:10:22.976Z,63.30
2017-11-05T01:12:51.837Z,63.20
2017-11-05T01:15:20.137Z,63.60
2017-11-05T01:17:48.696Z,62.90
2017-11-05T01:20:17.196Z,62.90
2017-11-05T01:22:45.536Z,62.80
2017-11-05T01:25:14.139Z,62.50
2017-11-05T01:27:43.455Z,63.00
2017-11-05T01:30:12.016Z,62.90
2017-11-05T01:32:41.315Z,63.60
2017-11-05T01:35:09.575Z,63.10
2017-11-05T01:37:38.275Z,63.00
2017-11-05T01:40:07.575Z,64.00
2017-11-05T01:42:36.136Z,64.00
2017-11-05T01:45:04.396Z,64.30
2017-11-05T01:47:32.815Z,64.30
2017-11-05T01:50:01.896Z,64.40
2017-11-05T01:52:30.119Z,64.40
2017-11-05T01:54:58.355Z,64.30
2017-11-05T01:57:26.715Z,64.40
2017-11-05T01:59:54.935Z,64.80
2017-11-05T02:02:23.275Z,64.30
2017-11-05T02:04:51.655Z,63.60
2017-11-05T02:07:20.036Z,63.40
2017-11-05T02:09:48.795Z,64.00
2017-11-05T02:12:17.156Z,62.90
2017-11-05T02:14:45.836Z,61.10
2017-11-05T02:17:14.495Z,62.10
2017-11-05T02:19:42.856Z,61.50
2017-11-05T02:22:12.275Z,60.30
2017-11-05T02:24:40.956Z,60.20
2017-11-05T02:27:10.456Z,60.50
2017-11-05T02:29:39.236Z,60.50
2017-11-05T02:32:08.635Z,61.60
2017-11-05T02:34:36.895Z,61.60
2017-11-05T02:37:05.175Z,63.30
2017-11-05T02:39:33.456Z,64.30
2017-11-05T02:42:01.756Z,66.00
2017-11-05T02:44:30.417Z,67.30
2017-11-05T02:46:59.916Z,69.80
2017-11-05T02:49:28.175Z,69.80
2017-11-05T02:51:56.637Z,69.70
2017-11-05T02:54:25.155Z,70.50
2017-11-05T02:56:53.336Z,70.30
2017-11-05T02:59:22.409Z,71.00
2017-11-05T03:01:50.747Z,71.00
2017-11-05T03:04:19.166Z,71.30
2017-11-05T03:06:47.455Z,70.80
2017-11-05T03:09:16.539Z,71.20
2017-11-05T03:11:44.859Z,71.20
2017-11-05T03:14:13.298Z,70.90
2017-11-05T03:16:41.596Z,71.20
2017-11-05T03:19:10.750Z,72.50
2017-11-05T03:21:39.229Z,72.50
2017-11-05T03:24:07.528Z,72.80
2017-11-05T03:26:35.747Z,72.90
2017-11-05T03:29:03.978Z,72.80
2017-11-05T03:31:33.072Z,73.00
2017-11-05T03:34:01.448Z,72.90
2017-11-05T03:36:30.556Z,72.00
2017-11-05T03:38:59.051Z,72.40
2017-11-05T03:41:28.329Z,71.60
2017-11-05T03:43:57.326Z,71.30
2017-11-05T03:46:25.810Z,71.30
2017-11-05T03:48:54.776Z,72.20
2017-11-05T03:51:23.301Z,71.50
2017-11-05T03:53:51.752Z,70.80
2017-11-05T03:56:20.330Z,70.50
2017-11-05T03:58:48.960Z,69.50
2017-11-05T04:01:17.501Z,69.60
2017-11-05T04:03:46.721Z,68.50
2017-11-05T04:06:15.021Z,68.60
2017-11-05T04:08:43.520Z,68.00
2017-11-05T04:11:13.277Z,67.90
2017-11-05T04:13:41.516Z,67.90
2017-11-05T04:16:10.709Z,67.50
2017-11-05T04:18:38.910Z,67.50
2017-11-05T04:21:07.309Z,67.10
2017-11-05T04:23:35.750Z,66.90
2017-11-05T04:26:05.474Z,66.90
2017-11-05T04:28:34.772Z,66.80
2017-11-05T04:31:03.219Z,66.70
2017-11-05T04:33:31.398Z,66.00
2017-11-05T04:35:59.700Z,66.90
2017-11-05T04:38:27.998Z,66.70
2017-11-05T04:40:57.173Z,65.40
2017-11-05T04:43:25.660Z,65.40
2017-11-05T04:45:54.951Z,64.70
2017-11-05T04:48:23.211Z,64.70
2017-11-05T04:50:51.797Z,64.20
2017-11-05T04:53:20.599Z,64.80
2017-11-05T04:55:49.888Z,64.30
2017-11-05T04:58:18.153Z,64.70
2017-11-05T05:00:46.653Z,64.60
2017-11-05T05:03:15.007Z,64.60
2017-11-05T05:05:43.458Z,64.50
2017-11-05T05:08:12.096Z,63.90
2017-11-05T05:10:40.461Z,64.10
2017-11-05T05:13:09.143Z,64.20
2017-11-05T05:15:37.752Z,63.90
2017-11-05T05:18:05.908Z,64.00
2017-11-05T05:20:34.493Z,63.90
2017-11-05T05:23:03.996Z,65.00
2017-11-05T05:25:32.259Z,64.30
2017-11-05T05:28:00.553Z,64.50
2017-11-05T05:30:29.873Z,64.20
2017-11-05T05:32:59.057Z,64.50
2017-11-05T05:35:28.477Z,64.10
2017-11-05T05:37:56.847Z,64.00
2017-11-05T05:40:25.307Z,64.00
2017-11-05T05:42:54.594Z,64.20
2017-11-05T05:45:23.335Z,64.20
2017-11-05T05:47:51.668Z,64.00
2017-11-05T05:50:20.326Z,63.90
2017-11-05T05:52:48.926Z,63.90
2017-11-05T05:55:17.527Z,63.90
2017-11-05T05:57:46.801Z,64.20
2017-11-05T06:00:15.266Z,64.20
2017-11-05T06:02:43.772Z,64.40
2017-11-05T06:05:12.078Z,64.50
2017-11-05T06:07:40.433Z,64.70
2017-11-05T06:10:08.478Z,64.80
2017-11-05T06:12:36.894Z,65.10
2017-11-05T06:15:06.000Z,65.40
2017-11-05T06:17:34.360Z,65.40
2017-11-05T06:20:03.542Z,66.50
2017-11-05T06:22:31.979Z,65.90
2017-11-05T06:25:00.409Z,65.90
2017-11-05T06:27:28.590Z,65.90
2017-11-05T06:29:56.971Z,66.50
2017-11-05T06:32:26.358Z,66.00
2017-11-05T06:34:54.647Z,66.00
2017-11-05T06:37:23.818Z,66.30
2017-11-05T06:39:52.115Z,66.30
2017-11-05T06:42:21.634Z,67.00
2017-11-05T06:44:51.354Z,66.20
2017-11-05T06:47:19.915Z,66.10
2017-11-05T06:49:49.093Z,65.90
2017-11-05T06:52:17.493Z,65.90
2017-11-05T06:54:46.676Z,66.10
2017-11-05T06:57:14.941Z,66.10
2017-11-05T06:59:43.241Z,67.20
2017-11-05T07:02:12.313Z,66.30
2017-11-05T07:04:40.474Z,66.40
2017-11-05T07:07:08.872Z,66.30
2017-11-05T07:09:37.758Z,66.30
2017-11-05T07:12:06.004Z,66.00
2017-11-05T07:14:34.461Z,66.40
2017-11-05T07:17:03.247Z,65.70
2017-11-05T07:19:31.775Z,65.80
2017-11-05T07:22:00.047Z,66.00
2017-11-05T07:24:28.457Z,66.10
2017-11-05T07:26:57.649Z,66.50
2017-11-05T07:29:26.981Z,66.50
2017-11-05T07:31:55.308Z,66.40
2017-11-05T07:34:23.573Z,66.20
2017-11-05T07:36:52.096Z,66.30
2017-11-05T07:39:21.374Z,66.70
2017-11-05T07:41:49.649Z,66.70
2017-11-05T07:44:19.143Z,66.30
2017-11-05T07:46:48.052Z,66.40
2017-11-05T07:49:17.454Z,67.10
2017-11-05T07:51:46.619Z,66.50
2017-11-05T07:54:15.022Z,66.50
2017-11-05T07:56:43.279Z,67.10
2017-11-05T07:59:11.796Z,67.30
2017-11-05T08:01:40.859Z,67.60
2017-11-05T08:04:09.108Z,67.40
2017-11-05T08:06:37.532Z,67.80
2017-11-05T08:09:06.494Z,68.30
2017-11-05T08:11:34.898Z,68.30
2017-11-05T08:14:03.087Z,67.60
2017-11-05T08:16:31.335Z,68.00
2017-11-05T08:18:59.556Z,68.20
2017-11-05T08:21:27.985Z,68.30
2017-11-05T08:23:56.528Z,68.40
2017-11-05T08:26:24.874Z,68.90
2017-11-05T08:28:53.859Z,69.30
2017-11-05T08:31:22.839Z,69.10
2017-11-05T08:33:51.100Z,69.10
2017-11-05T08:36:19.359Z,69.30
2017-11-05T08:38:47.859Z,69.00
2017-11-05T08:41:16.379Z,69.30
2017-11-05T08:43:44.823Z,69.20
2017-11-05T08:46:13.113Z,69.40
2017-11-05T08:48:41.277Z,69.60
2017-11-05T08:51:09.762Z,69.70
2017-11-05T08:53:38.056Z,69.90
2017-11-05T08:56:06.975Z,70.50
2017-11-05T08:58:35.376Z,70.60
2017-11-05T09:01:03.776Z,70.80
2017-11-05T09:03:32.176Z,70.80
2017-11-05T09:06:01.235Z,71.70
2017-11-05T09:08:29.835Z,71.60
2017-11-05T09:10:58.555Z,72.10
2017-11-05T09:13:27.055Z,72.30
2017-11-05T09:15:55.415Z,72.70
2017-11-05T09:18:23.855Z,72.20
2017-11-05T09:20:52.495Z,72.70
2017-11-05T09:23:20.934Z,72.70
2017-11-05T09:25:50.675Z,72.30
2017-11-05T09:28:19.135Z,72.30
2017-11-05T09:30:47.600Z,72.90
2017-11-05T09:33:16.055Z,73.20
2017-11-05T09:35:44.655Z,73.30
2017-11-05T09:38:14.215Z,73.30
2017-11-05T09:40:42.535Z,73.30
2017-11-05T09:43:10.996Z,73.10
2017-11-05T09:45:39.035Z,73.50
2017-11-05T09:48:07.461Z,73.70
2017-11-05T09:50:35.638Z,73.60
2017-11-05T09:53:05.073Z,74.10
2017-11-05T09:55:33.414Z,74.00
2017-11-05T09:58:01.761Z,74.50
2017-11-05T10:00:29.960Z,74.50
2017-11-05T10:02:58.673Z,74.50
2017-11-05T10:05:28.293Z,74.80
2017-11-05T10:07:56.658Z,74.70
2017-11-05T10:10:26.274Z,74.80
2017-11-05T10:12:55.053Z,74.80
2017-11-05T10:15:24.755Z,74.30
2017-11-05T10:17:54.273Z,75.00
2017-11-05T10:20:23.633Z,74.10
2017-11-05T10:22:52.034Z,74.10
2017-11-05T10:25:20.513Z,74.20
2017-11-05T10:27:49.098Z,74.00
2017-11-05T10:30:18.573Z,73.10
2017-11-05T10:32:46.919Z,73.10
2017-11-05T10:35:15.853Z,73.10
2017-11-05T10:37:44.233Z,73.40
2017-11-05T10:40:12.819Z,73.30
2017-11-05T10:42:41.813Z,73.70
2017-11-05T10:45:10.153Z,73.70
2017-11-05T10:47:38.473Z,73.80
2017-11-05T10:50:07.674Z,74.30
2017-11-05T10:52:36.854Z,73.80
2017-11-05T10:55:05.293Z,73.80
2017-11-05T10:57:33.834Z,72.30
2017-11-05T11:00:03.114Z,74.20
2017-11-05T11:02:31.653Z,74.10
2017-11-05T11:04:59.893Z,74.60
2017-11-05T11:07:28.818Z,74.30
2017-11-05T11:09:57.672Z,74.30
2017-11-05T11:12:26.051Z,74.10
2017-11-05T11:14:55.291Z,74.50
2017-11-05T11:17:23.911Z,74.50
2017-11-05T11:19:52.270Z,74.30
2017-11-05T11:22:20.990Z,74.10
2017-11-05T11:24:50.170Z,75.00
2017-11-05T11:27:18.549Z,75.00
2017-11-05T11:29:48.254Z,74.80
2017-11-05T11:32:16.430Z,74.70
2017-11-05T11:34:44.722Z,74.70
2017-11-05T11:37:13.822Z,74.60
2017-11-05T11:39:43.135Z,72.60
2017-11-05T11:42:11.795Z,72.60
2017-11-05T11:44:40.723Z,71.90
2017-11-05T11:47:09.219Z,71.50
2017-11-05T11:49:37.736Z,70.50
2017-11-05T11:52:06.036Z,69.70
2017-11-05T11:54:35.257Z,70.00
2017-11-05T11:57:03.656Z,70.00
2017-11-05T11:59:32.035Z,69.80
2017-11-05T12:02:00.757Z,68.40
2017-11-05T12:04:29.268Z,68.30
2017-11-05T12:06:57.816Z,68.40
2017-11-05T12:09:26.235Z,69.00
2017-11-05T12:11:54.475Z,68.90
2017-11-05T12:14:22.955Z,69.60
2017-11-05T12:16:52.276Z,70.00
2017-11-05T12:19:20.638Z,70.00
2017-11-05T12:21:49.837Z,71.40
2017-11-05T12:24:18.955Z,71.20
2017-11-05T12:26:47.395Z,71.20
2017-11-05T12:29:15.782Z,70.70
2017-11-05T12:31:44.476Z,70.60
2017-11-05T12:34:13.756Z,70.40
2017-11-05T12:36:42.155Z,70.40
2017-11-05T12:39:11.556Z,71.00
2017-11-05T12:41:41.055Z,71.60
2017-11-05T12:44:09.436Z,71.50
2017-11-05T12:46:37.939Z,71.70
2017-11-05T12:49:06.457Z,71.80
2017-11-05T12:51:35.176Z,69.70
2017-11-05T12:54:03.496Z,70.30
2017-11-05T12:56:32.255Z,68.90
2017-11-05T12:59:01.555Z,67.70
2017-11-05T13:01:30.882Z,69.20
2017-11-05T13:03:59.315Z,69.10
2017-11-05T13:06:27.598Z,69.30
2017-11-05T13:08:56.278Z,67.60
2017-11-05T13:11:25.975Z,67.70
2017-11-05T13:13:54.375Z,67.70
2017-11-05T13:16:22.796Z,69.00
2017-11-05T13:18:51.016Z,68.10
2017-11-05T13:21:19.178Z,67.40
2017-11-05T13:23:47.888Z,67.20
2017-11-05T13:26:17.069Z,68.40
2017-11-05T13:28:45.451Z,68.40
2017-11-05T13:31:13.849Z,68.50
2017-11-05T13:33:42.935Z,68.60
2017-11-05T13:36:12.128Z,67.50
2017-11-05T13:38:40.388Z,67.60
2017-11-05T13:41:08.649Z,67.60
2017-11-05T13:43:37.049Z,67.10
2017-11-05T13:46:05.209Z,67.90
2017-11-05T13:48:33.609Z,69.30
2017-11-05T13:51:02.088Z,69.30
2017-11-05T13:53:30.249Z,68.90
2017-11-05T13:55:58.528Z,68.30
2017-11-05T13:58:26.928Z,68.30
2017-11-05T14:00:56.169Z,67.70
2017-11-05T14:03:24.608Z,67.70
2017-11-05T14:05:53.614Z,67.60
2017-11-05T14:08:22.233Z,67.50
2017-11-05T14:10:51.108Z,66.90
2017-11-05T14:13:19.529Z,66.60
2017-11-05T14:15:48.231Z,67.20
2017-11-05T14:18:17.538Z,66.70
2017-11-05T14:20:46.908Z,67.30
2017-11-05T14:23:15.268Z,67.30
2017-11-05T14:25:43.850Z,67.80
2017-11-05T14:28:12.469Z,67.50
2017-11-05T14:30:40.928Z,68.00
2017-11-05T14:33:09.354Z,67.00
2017-11-05T14:35:38.729Z,67.70
2017-11-05T14:38:08.028Z,67.70
2017-11-05T14:40:37.949Z,66.80
2017-11-05T14:43:07.089Z,67.00
2017-11-05T14:45:35.428Z,67.00
2017-11-05T14:48:04.649Z,67.10
2017-11-05T14:50:33.289Z,67.00
2017-11-05T14:53:01.687Z,66.40
2017-11-05T14:55:30.867Z,66.80
2017-11-05T14:57:59.347Z,66.70
2017-11-05T15:00:27.632Z,66.40
2017-11-05T15:02:56.708Z,66.40
2017-11-05T15:05:25.228Z,66.40
2017-11-05T15:07:53.808Z,65.30
2017-11-05T15:10:22.768Z,65.30
2017-11-05T15:12:51.369Z,65.40
2017-11-05T15:15:20.789Z,65.70
2017-11-05T15:17:49.153Z,65.70
2017-11-05T15:20:18.456Z,65.40
2017-11-05T15:22:47.857Z,65.50
2017-11-05T15:25:17.198Z,65.40
2017-11-05T15:27:45.639Z,65.40
2017-11-05T15:30:14.917Z,64.10
2017-11-05T15:32:43.300Z,64.00
2017-11-05T15:35:12.377Z,64.60
2017-11-05T15:37:40.838Z,64.40
2017-11-05T15:40:09.363Z,64.70
2017-11-05T15:42:38.536Z,63.40
2017-11-05T15:45:06.717Z,63.40
2017-11-05T15:47:35.137Z,64.40
2017-11-05T15:50:03.478Z,64.80
2017-11-05T15:52:31.823Z,64.70
2017-11-05T15:55:00.336Z,64.10
2017-11-05T15:57:29.416Z,64.60
2017-11-05T15:59:57.696Z,66.20
2017-11-05T16:02:26.036Z,64.80
2017-11-05T16:04:54.556Z,66.10
2017-11-05T16:07:22.936Z,65.10
2017-11-05T16:09:51.518Z,66.60
2017-11-05T16:12:19.897Z,66.50
2017-11-05T16:14:48.457Z,66.60
2017-11-05T16:17:17.396Z,67.00
2017-11-05T16:19:46.737Z,67.00
2017-11-05T16:22:15.137Z,68.00
2017-11-05T16:24:43.538Z,67.00
2017-11-05T16:27:12.854Z,66.50
2017-11-05T16:29:42.257Z,66.50
2017-11-05T16:32:10.497Z,67.20
2017-11-05T16:34:39.217Z,66.20
2017-11-05T16:37:08.697Z,64.90
2017-11-05T16:39:37.818Z,65.70
2017-11-05T16:42:07.217Z,65.30
2017-11-05T16:44:36.596Z,65.40
2017-11-05T16:47:05.076Z,65.40
2017-11-05T16:49:33.656Z,65.60
2017-11-05T16:52:02.840Z,66.60
2017-11-05T16:54:31.116Z,66.60
2017-11-05T16:56:59.517Z,66.40
2017-11-05T16:59:28.517Z,66.80
2017-11-05T17:01:57.497Z,66.80
2017-11-05T17:04:26.077Z,66.80
2017-11-05T17:06:54.519Z,67.00
2017-11-05T17:09:22.844Z,66.30
2017-11-05T17:11:52.022Z,65.60
2017-11-05T17:14:21.118Z,66.60
2017-11-05T17:16:49.458Z,66.60
2017-11-05T17:19:17.996Z,67.10
2017-11-05T17:21:47.397Z,65.50
2017-11-05T17:24:16.679Z,66.30
2017-11-05T17:26:45.058Z,66.20
2017-11-05T17:29:13.137Z,66.10
2017-11-05T17:31:42.298Z,67.10
2017-11-05T17:34:10.997Z,67.00
2017-11-05T17:36:39.676Z,66.30
2017-11-05T17:39:08.382Z,66.90
2017-11-05T17:41:37.924Z,67.10
2017-11-05T17:44:06.236Z,67.10
2017-11-05T17:46:34.858Z,66.90
2017-11-05T17:49:04.057Z,66.90
2017-11-05T17:51:33.299Z,67.20
2017-11-05T17:54:02.097Z,67.10
2017-11-05T17:56:30.537Z,66.50
2017-11-05T17:58:58.877Z,66.20
2017-11-05T18:01:27.197Z,66.20
2017-11-05T18:03:55.436Z,65.80
2017-11-05T18:06:24.736Z,66.60
2017-11-05T18:08:53.316Z,66.60
2017-11-05T18:11:21.496Z,66.30
2017-11-05T18:13:50.797Z,66.40
2017-11-05T18:16:19.060Z,66.30
2017-11-05T18:18:47.337Z,65.70
2017-11-05T18:21:15.856Z,65.50
2017-11-05T18:23:44.096Z,65.60
2017-11-05T18:26:12.336Z,65.40
2017-11-05T18:28:40.617Z,65.60
2017-11-05T18:31:09.037Z,65.70
2017-11-05T18:33:38.217Z,65.80
2017-11-05T18:36:06.496Z,65.60
2017-11-05T18:38:34.757Z,66.80
2017-11-05T18:41:03.038Z,65.90
2017-11-05T18:43:31.558Z,66.10
2017-11-05T18:45:59.837Z,66.70
2017-11-05T18:48:28.397Z,65.30
2017-11-05T18:50:57.136Z,66.30
2017-11-05T18:53:25.757Z,66.00
2017-11-05T18:55:54.482Z,66.70
2017-11-05T18:58:23.057Z,66.60
2017-11-05T19:00:51.817Z,66.10
2017-11-05T19:03:21.317Z,67.30
2017-11-05T19:05:50.419Z,66.60
2017-11-05T19:08:19.717Z,66.40
2017-11-05T19:10:49.117Z,66.90
2017-11-05T19:13:17.367Z,66.90
2017-11-05T19:15:45.593Z,65.80
2017-11-05T19:18:14.264Z,66.10
2017-11-05T19:20:43.724Z,64.90
2017-11-05T19:23:12.545Z,64.80
2017-11-05T19:25:41.026Z,65.20
2017-11-05T19:28:10.290Z,65.50
2017-11-05T19:30:38.506Z,65.40
2017-11-05T19:33:06.625Z,64.60
2017-11-05T19:35:34.945Z,64.90
2017-11-05T19:38:04.025Z,64.90
2017-11-05T19:40:32.625Z,64.90
2017-11-05T19:43:02.066Z,65.70
2017-11-05T19:45:30.806Z,65.70
2017-11-05T19:47:59.826Z,66.10
2017-11-05T19:50:28.346Z,66.00
2017-11-05T19:52:56.785Z,66.10
2017-11-05T19:55:25.465Z,67.10
2017-11-05T19:57:54.545Z,67.50
2017-11-05T20:00:24.005Z,67.80
2017-11-05T20:02:52.645Z,67.60
2017-11-05T20:05:21.146Z,67.90
2017-11-05T20:07:49.606Z,67.90
2017-11-05T20:10:18.005Z,67.80
2017-11-05T20:12:46.644Z,66.50
2017-11-05T20:15:15.144Z,66.70
2017-11-05T20:17:44.510Z,67.20
2017-11-05T20:20:13.065Z,67.20
2017-11-05T20:22:41.508Z,66.70
2017-11-05T20:25:10.886Z,67.40
2017-11-05T20:27:39.361Z,67.30
2017-11-05T20:30:07.845Z,67.30
2017-11-05T20:32:36.125Z,67.20
2017-11-05T20:35:04.626Z,68.10
2017-11-05T20:37:33.605Z,67.20
2017-11-05T20:40:03.565Z,67.30
2017-11-05T20:42:31.987Z,67.20
2017-11-05T20:45:00.145Z,67.80
2017-11-05T20:47:28.545Z,67.30
2017-11-05T20:49:56.825Z,67.00
2017-11-05T20:52:25.408Z,67.30
2017-11-05T20:54:54.725Z,67.50
2017-11-05T20:57:24.164Z,68.20
2017-11-05T20:59:52.965Z,68.20
2017-11-05T21:02:21.604Z,67.90
2017-11-05T21:04:49.925Z,68.30
2017-11-05T21:07:18.678Z,68.60
2017-11-05T21:09:47.126Z,68.30
2017-11-05T21:12:16.247Z,67.80
2017-11-05T21:14:44.625Z,67.80
2017-11-05T21:17:13.124Z,68.10
2017-11-05T21:19:41.464Z,65.60
2017-11-05T21:22:11.045Z,64.90
2017-11-05T21:24:39.445Z,64.90
2017-11-05T21:27:07.926Z,64.40
2017-11-05T21:29:37.205Z,64.10
2017-11-05T21:32:05.606Z,64.80
2017-11-05T21:34:34.685Z,63.50
2017-11-05T21:37:03.165Z,63.40
2017-11-05T21:39:31.505Z,64.70
2017-11-05T21:41:59.825Z,65.40
2017-11-05T21:44:28.824Z,66.60
2017-11-05T21:46:58.207Z,66.20
2017-11-05T21:49:26.466Z,66.20
2017-11-05T21:51:54.885Z,66.20
2017-11-05T21:54:24.285Z,66.00
2017-11-05T21:56:53.565Z,66.70
2017-11-05T21:59:21.925Z,66.60
2017-11-05T22:01:50.325Z,66.00
2017-11-05T22:04:19.725Z,65.60
2017-11-05T22:06:48.025Z,65.60
2017-11-05T22:09:17.324Z,65.50
2017-11-05T22:11:46.734Z,65.80
2017-11-05T22:14:15.566Z,65.80
2017-11-05T22:16:43.944Z,65.00
2017-11-05T22:19:12.566Z,65.60
2017-11-05T22:21:41.984Z,66.00
2017-11-05T22:24:11.188Z,66.40
2017-11-05T22:26:39.605Z,66.40
2017-11-05T22:29:08.046Z,67.10
2017-11-05T22:31:36.624Z,67.00
2017-11-05T22:34:05.985Z,65.90
2017-11-05T22:36:34.245Z,65.90
2017-11-05T22:39:02.764Z,65.60
2017-11-05T22:41:32.044Z,66.70
2017-11-05T22:44:00.304Z,66.70
2017-11-05T22:46:28.905Z,67.10
2017-11-05T22:48:57.144Z,67.70
2017-11-05T22:51:25.564Z,67.50
2017-11-05T22:53:53.724Z,68.30
2017-11-05T22:56:22.190Z,68.70
2017-11-05T22:58:50.564Z,68.50
2017-11-05T23:01:18.905Z,68.20
2017-11-05T23:03:47.244Z,68.20
2017-11-05T23:06:15.425Z,68.40
2017-11-05T23:08:44.505Z,68.30
2017-11-05T23:11:12.584Z,68.30
2017-11-05T23:13:41.844Z,68.00
2017-11-05T23:16:10.365Z,68.00
2017-11-05T23:18:39.565Z,67.90
2017-11-05T23:21:08.063Z,67.90
2017-11-05T23:23:37.404Z,68.00
2017-11-05T23:26:05.737Z,67.90
2017-11-05T23:28:34.639Z,67.70
2017-11-05T23:31:02.980Z,67.70
2017-11-05T23:33:31.159Z,67.10
2017-11-05T23:36:00.360Z,65.50
2017-11-05T23:38:28.739Z,65.50
2017-11-05T23:40:57.940Z,66.40
2017-11-05T23:43:27.239Z,65.10
2017-11-05T23:45:56.444Z,64.30
2017-11-05T23:48:25.520Z,65.40
2017-11-05T23:50:53.799Z,65.30
2017-11-05T23:53:21.959Z,64.90
2017-11-05T23:55:50.460Z,65.70
2017-11-05T23:58:19.640Z,66.50
